sensor_id;sensor_type;location;lat;lon;timestamp;P1;durP1;ratioP1;P2;durP2;ratioP2
31095;SDS011;17749;51.962;8.560;2024-03-06T06:03:24;61.38;;;27.55;;
31095;SDS011;17749;51.962;8.560;2024-03-06T06:05:51;57.72;;;27.95;;
31095;SDS011;17749;51.962;8.560;2024-03-06T06:08:18;53.30;;;25.75;;
31095;SDS011;17749;51.962;8.560;2024-03-06T06:10:45;61.67;;;27.30;;
31095;SDS011;17749;51.962;8.560;2024-03-06T06:13:12;59.72;;;30.05;;
31095;SDS011;17749;51.962;8.560;2024-03-06T06:15:39;54.72;;;28.55;;
31095;SDS011;17749;51.962;8.560;2024-03-06T06:18:06;60.92;;;31.42;;
31095;SDS011;17749;51.962;8.560;2024-03-06T06:20:33;57.70;;;29.13;;
31095;SDS011;17749;51.962;8.560;2024-03-06T06:23:01;65.45;;;29.95;;
31095;SDS011;17749;51.962;8.560;2024-03-06T06:25:28;65.47;;;32.13;;
31095;SDS011;17749;51.962;8.560;2024-03-06T06:27:55;73.00;;;34.65;;
31095;SDS011;17749;51.962;8.560;2024-03-06T06:30:22;66.45;;;32.08;;
31095;SDS011;17749;51.962;8.560;2024-03-06T06:32:49;61.25;;;27.33;;
31095;SDS011;17749;51.962;8.560;2024-03-06T06:35:16;69.72;;;30.52;;
31095;SDS011;17749;51.962;8.560;2024-03-06T06:37:43;65.57;;;30.52;;
31095;SDS011;17749;51.962;8.560;2024-03-06T06:40:10;60.92;;;27.88;;
31095;SDS011;17749;51.962;8.560;2024-03-06T06:45:16;57.65;;;25.70;;
31095;SDS011;17749;51.962;8.560;2024-03-06T06:47:44;53.92;;;27.77;;
31095;SDS011;17749;51.962;8.560;2024-03-06T06:50:12;66.68;;;28.35;;
31095;SDS011;17749;51.962;8.560;2024-03-06T06:52:39;61.75;;;30.48;;
31095;SDS011;17749;51.962;8.560;2024-03-06T06:55:07;62.05;;;29.55;;
31095;SDS011;17749;51.962;8.560;2024-03-06T06:57:38;63.80;;;27.90;;
31095;SDS011;17749;51.962;8.560;2024-03-06T07:00:05;54.42;;;26.75;;
31095;SDS011;17749;51.962;8.560;2024-03-06T07:02:37;61.58;;;27.08;;
31095;SDS011;17749;51.962;8.560;2024-03-06T07:05:08;57.25;;;28.00;;
31095;SDS011;17749;51.962;8.560;2024-03-06T07:07:36;58.88;;;29.30;;
31095;SDS011;17749;51.962;8.560;2024-03-06T07:10:04;55.75;;;27.58;;
31095;SDS011;17749;51.962;8.560;2024-03-06T07:12:32;59.90;;;28.20;;
31095;SDS011;17749;51.962;8.560;2024-03-06T07:14:59;56.33;;;27.55;;
31095;SDS011;17749;51.962;8.560;2024-03-06T07:17:26;59.30;;;27.95;;
31095;SDS011;17749;51.962;8.560;2024-03-06T07:19:54;64.55;;;28.90;;
31095;SDS011;17749;51.962;8.560;2024-03-06T07:22:24;64.60;;;28.52;;
31095;SDS011;17749;51.962;8.560;2024-03-06T07:24:51;62.72;;;28.65;;
31095;SDS011;17749;51.962;8.560;2024-03-06T07:27:18;62.55;;;28.38;;
31095;SDS011;17749;51.962;8.560;2024-03-06T07:29:45;65.75;;;28.67;;
31095;SDS011;17749;51.962;8.560;2024-03-06T07:32:12;66.28;;;29.67;;
31095;SDS011;17749;51.962;8.560;2024-03-06T07:34:39;64.63;;;31.40;;
31095;SDS011;17749;51.962;8.560;2024-03-06T07:37:06;62.17;;;30.38;;
31095;SDS011;17749;51.962;8.560;2024-03-06T07:39:33;63.33;;;29.45;;
31095;SDS011;17749;51.962;8.560;2024-03-06T07:42:01;62.13;;;29.00;;
31095;SDS011;17749;51.962;8.560;2024-03-06T07:44:29;65.22;;;29.25;;
31095;SDS011;17749;51.962;8.560;2024-03-06T07:46:56;70.28;;;31.30;;
31095;SDS011;17749;51.962;8.560;2024-03-06T07:49:23;61.67;;;29.90;;
31095;SDS011;17749;51.962;8.560;2024-03-06T07:51:50;63.15;;;29.85;;
31095;SDS011;17749;51.962;8.560;2024-03-06T07:54:17;58.92;;;26.77;;
31095;SDS011;17749;51.962;8.560;2024-03-06T07:56:44;63.47;;;28.83;;
31095;SDS011;17749;51.962;8.560;2024-03-06T07:59:11;57.13;;;28.90;;
31095;SDS011;17749;51.962;8.560;2024-03-06T08:01:42;66.03;;;31.00;;
31095;SDS011;17749;51.962;8.560;2024-03-06T08:04:09;59.53;;;28.20;;
31095;SDS011;17749;51.962;8.560;2024-03-06T08:06:36;63.50;;;28.75;;
31095;SDS011;17749;51.962;8.560;2024-03-06T08:09:04;63.88;;;30.35;;
31095;SDS011;17749;51.962;8.560;2024-03-06T08:11:32;69.13;;;31.63;;
31095;SDS011;17749;51.962;8.560;2024-03-06T08:14:00;62.47;;;29.60;;
31095;SDS011;17749;51.962;8.560;2024-03-06T08:16:29;65.30;;;31.63;;
31095;SDS011;17749;51.962;8.560;2024-03-06T08:19:01;66.97;;;28.83;;
31095;SDS011;17749;51.962;8.560;2024-03-06T08:21:28;68.80;;;30.08;;
31095;SDS011;17749;51.962;8.560;2024-03-06T08:23:55;64.93;;;30.58;;
31095;SDS011;17749;51.962;8.560;2024-03-06T08:26:22;70.18;;;31.48;;
31095;SDS011;17749;51.962;8.560;2024-03-06T08:28:49;69.00;;;31.00;;
31095;SDS011;17749;51.962;8.560;2024-03-06T08:31:16;68.47;;;29.80;;
31095;SDS011;17749;51.962;8.560;2024-03-06T08:33:44;63.63;;;29.48;;
31095;SDS011;17749;51.962;8.560;2024-03-06T08:36:11;74.07;;;32.83;;
31095;SDS011;17749;51.962;8.560;2024-03-06T08:38:40;62.60;;;28.50;;
31095;SDS011;17749;51.962;8.560;2024-03-06T08:41:09;63.83;;;28.95;;
31095;SDS011;17749;51.962;8.560;2024-03-06T08:43:36;65.68;;;31.23;;
31095;SDS011;17749;51.962;8.560;2024-03-06T08:46:03;72.60;;;30.10;;
31095;SDS011;17749;51.962;8.560;2024-03-06T08:48:30;64.60;;;30.30;;
31095;SDS011;17749;51.962;8.560;2024-03-06T08:50:57;73.03;;;32.47;;
31095;SDS011;17749;51.962;8.560;2024-03-06T08:53:25;77.32;;;32.60;;
31095;SDS011;17749;51.962;8.560;2024-03-06T08:55:52;68.50;;;29.65;;
31095;SDS011;17749;51.962;8.560;2024-03-06T08:58:19;73.45;;;33.15;;
31095;SDS011;17749;51.962;8.560;2024-03-06T09:00:47;74.43;;;32.63;;
31095;SDS011;17749;51.962;8.560;2024-03-06T09:03:15;64.13;;;31.65;;
31095;SDS011;17749;51.962;8.560;2024-03-06T09:05:42;72.50;;;32.65;;
31095;SDS011;17749;51.962;8.560;2024-03-06T09:08:09;69.18;;;31.73;;
31095;SDS011;17749;51.962;8.560;2024-03-06T09:10:38;70.15;;;31.90;;
31095;SDS011;17749;51.962;8.560;2024-03-06T09:13:05;74.25;;;34.78;;
31095;SDS011;17749;51.962;8.560;2024-03-06T09:15:32;68.43;;;30.63;;
31095;SDS011;17749;51.962;8.560;2024-03-06T09:17:59;78.35;;;33.35;;
31095;SDS011;17749;51.962;8.560;2024-03-06T09:20:26;75.13;;;34.08;;
31095;SDS011;17749;51.962;8.560;2024-03-06T09:22:53;80.38;;;36.47;;
31095;SDS011;17749;51.962;8.560;2024-03-06T09:25:23;65.10;;;30.15;;
31095;SDS011;17749;51.962;8.560;2024-03-06T09:27:55;72.78;;;32.13;;
31095;SDS011;17749;51.962;8.560;2024-03-06T09:30:22;72.45;;;33.63;;
31095;SDS011;17749;51.962;8.560;2024-03-06T09:32:49;70.72;;;31.58;;
31095;SDS011;17749;51.962;8.560;2024-03-06T09:35:18;59.75;;;30.80;;
31095;SDS011;17749;51.962;8.560;2024-03-06T09:37:45;68.22;;;31.50;;
31095;SDS011;17749;51.962;8.560;2024-03-06T09:40:19;70.95;;;33.63;;
31095;SDS011;17749;51.962;8.560;2024-03-06T09:42:48;73.03;;;32.83;;
31095;SDS011;17749;51.962;8.560;2024-03-06T09:45:17;69.80;;;32.22;;
31095;SDS011;17749;51.962;8.560;2024-03-06T09:47:46;73.70;;;32.45;;
31095;SDS011;17749;51.962;8.560;2024-03-06T09:50:17;67.18;;;31.55;;
31095;SDS011;17749;51.962;8.560;2024-03-06T09:52:51;60.83;;;29.65;;
31095;SDS011;17749;51.962;8.560;2024-03-06T09:55:19;72.10;;;29.35;;
31095;SDS011;17749;51.962;8.560;2024-03-06T09:57:47;65.03;;;30.98;;
31095;SDS011;17749;51.962;8.560;2024-03-06T10:00:15;64.60;;;31.67;;
31095;SDS011;17749;51.962;8.560;2024-03-06T10:02:48;60.35;;;29.63;;
31095;SDS011;17749;51.962;8.560;2024-03-06T10:05:21;65.60;;;30.45;;
31095;SDS011;17749;51.962;8.560;2024-03-06T10:07:50;63.95;;;29.15;;
31095;SDS011;17749;51.962;8.560;2024-03-06T10:10:18;55.35;;;26.65;;
31095;SDS011;17749;51.962;8.560;2024-03-06T10:12:46;57.60;;;27.00;;
31095;SDS011;17749;51.962;8.560;2024-03-06T10:15:14;56.70;;;26.95;;
31095;SDS011;17749;51.962;8.560;2024-03-06T10:17:41;51.20;;;26.52;;
31095;SDS011;17749;51.962;8.560;2024-03-06T10:20:22;58.55;;;26.85;;
31095;SDS011;17749;51.962;8.560;2024-03-06T10:22:51;53.75;;;25.88;;
31095;SDS011;17749;51.962;8.560;2024-03-06T10:25:24;56.28;;;25.98;;
31095;SDS011;17749;51.962;8.560;2024-03-06T10:28:09;54.03;;;25.58;;
31095;SDS011;17749;51.962;8.560;2024-03-06T10:30:38;53.53;;;25.35;;
31095;SDS011;17749;51.962;8.560;2024-03-06T10:33:10;51.95;;;24.95;;
31095;SDS011;17749;51.962;8.560;2024-03-06T10:35:40;54.53;;;25.95;;
31095;SDS011;17749;51.962;8.560;2024-03-06T10:38:09;52.88;;;24.52;;
31095;SDS011;17749;51.962;8.560;2024-03-06T10:40:38;44.22;;;22.95;;
31095;SDS011;17749;51.962;8.560;2024-03-06T10:43:09;53.20;;;25.92;;
31095;SDS011;17749;51.962;8.560;2024-03-06T10:45:47;50.15;;;21.75;;
31095;SDS011;17749;51.962;8.560;2024-03-06T10:48:18;43.20;;;21.80;;
31095;SDS011;17749;51.962;8.560;2024-03-06T10:50:47;50.95;;;23.23;;
31095;SDS011;17749;51.962;8.560;2024-03-06T10:53:16;46.47;;;22.88;;
31095;SDS011;17749;51.962;8.560;2024-03-06T10:55:50;51.15;;;25.63;;
31095;SDS011;17749;51.962;8.560;2024-03-06T10:58:17;50.35;;;23.40;;
31095;SDS011;17749;51.962;8.560;2024-03-06T11:00:47;47.70;;;23.05;;
31095;SDS011;17749;51.962;8.560;2024-03-06T11:03:15;47.75;;;23.27;;
31095;SDS011;17749;51.962;8.560;2024-03-06T11:05:43;51.50;;;24.35;;
31095;SDS011;17749;51.962;8.560;2024-03-06T11:08:15;49.00;;;23.15;;
31095;SDS011;17749;51.962;8.560;2024-03-06T11:10:43;46.35;;;22.13;;
31095;SDS011;17749;51.962;8.560;2024-03-06T11:15:47;41.97;;;21.60;;
31095;SDS011;17749;51.962;8.560;2024-03-06T11:23:31;40.67;;;20.30;;
31095;SDS011;17749;51.962;8.560;2024-03-06T11:26:02;41.05;;;21.00;;
31095;SDS011;17749;51.962;8.560;2024-03-06T11:28:32;40.28;;;20.52;;
31095;SDS011;17749;51.962;8.560;2024-03-06T11:33:35;47.33;;;22.20;;
31095;SDS011;17749;51.962;8.560;2024-03-06T11:36:16;47.35;;;22.23;;
31095;SDS011;17749;51.962;8.560;2024-03-06T11:38:51;49.17;;;21.88;;
31095;SDS011;17749;51.962;8.560;2024-03-06T11:41:31;49.65;;;22.92;;
31095;SDS011;17749;51.962;8.560;2024-03-06T11:44:17;54.03;;;24.33;;
31095;SDS011;17749;51.962;8.560;2024-03-06T11:46:56;49.10;;;24.23;;
31095;SDS011;17749;51.962;8.560;2024-03-06T11:49:27;50.65;;;25.60;;
31095;SDS011;17749;51.962;8.560;2024-03-06T11:52:02;52.28;;;24.92;;
31095;SDS011;17749;51.962;8.560;2024-03-06T11:54:32;54.42;;;25.80;;
31095;SDS011;17749;51.962;8.560;2024-03-06T11:57:00;54.22;;;24.75;;
31095;SDS011;17749;51.962;8.560;2024-03-06T11:59:29;63.03;;;27.80;;
31095;SDS011;17749;51.962;8.560;2024-03-06T12:01:59;61.22;;;27.23;;
31095;SDS011;17749;51.962;8.560;2024-03-06T12:04:34;69.97;;;28.73;;
31095;SDS011;17749;51.962;8.560;2024-03-06T12:07:06;60.70;;;26.65;;
31095;SDS011;17749;51.962;8.560;2024-03-06T12:09:35;55.60;;;25.42;;
31095;SDS011;17749;51.962;8.560;2024-03-06T12:12:09;56.35;;;26.83;;
31095;SDS011;17749;51.962;8.560;2024-03-06T12:14:38;62.05;;;28.17;;
31095;SDS011;17749;51.962;8.560;2024-03-06T12:17:10;56.22;;;29.42;;
31095;SDS011;17749;51.962;8.560;2024-03-06T12:19:41;63.10;;;27.08;;
31095;SDS011;17749;51.962;8.560;2024-03-06T12:22:11;58.55;;;26.48;;
31095;SDS011;17749;51.962;8.560;2024-03-06T12:24:38;59.28;;;26.75;;
31095;SDS011;17749;51.962;8.560;2024-03-06T12:27:06;65.35;;;27.30;;
31095;SDS011;17749;51.962;8.560;2024-03-06T12:29:34;60.50;;;27.20;;
31095;SDS011;17749;51.962;8.560;2024-03-06T12:32:03;63.40;;;26.08;;
31095;SDS011;17749;51.962;8.560;2024-03-06T12:34:30;60.65;;;26.40;;
31095;SDS011;17749;51.962;8.560;2024-03-06T12:37:10;55.63;;;25.83;;
31095;SDS011;17749;51.962;8.560;2024-03-06T12:39:38;59.58;;;26.58;;
31095;SDS011;17749;51.962;8.560;2024-03-06T12:42:09;56.30;;;25.38;;
31095;SDS011;17749;51.962;8.560;2024-03-06T12:44:37;55.22;;;24.52;;
31095;SDS011;17749;51.962;8.560;2024-03-06T12:47:06;55.47;;;25.33;;
31095;SDS011;17749;51.962;8.560;2024-03-06T12:49:33;55.55;;;24.88;;
31095;SDS011;17749;51.962;8.560;2024-03-06T12:52:00;53.30;;;24.83;;
31095;SDS011;17749;51.962;8.560;2024-03-06T12:54:31;62.65;;;26.17;;
31095;SDS011;17749;51.962;8.560;2024-03-06T12:56:58;61.42;;;24.88;;
31095;SDS011;17749;51.962;8.560;2024-03-06T12:59:25;60.88;;;24.15;;
31095;SDS011;17749;51.962;8.560;2024-03-06T13:01:52;56.92;;;26.77;;
31095;SDS011;17749;51.962;8.560;2024-03-06T13:04:21;63.17;;;25.85;;
31095;SDS011;17749;51.962;8.560;2024-03-06T13:06:48;62.45;;;26.35;;
31095;SDS011;17749;51.962;8.560;2024-03-06T13:09:15;59.70;;;26.20;;
31095;SDS011;17749;51.962;8.560;2024-03-06T13:11:42;62.35;;;26.63;;
31095;SDS011;17749;51.962;8.560;2024-03-06T13:14:10;58.72;;;24.30;;
31095;SDS011;17749;51.962;8.560;2024-03-06T13:16:39;54.80;;;26.40;;
31095;SDS011;17749;51.962;8.560;2024-03-06T13:19:06;62.33;;;26.85;;
31095;SDS011;17749;51.962;8.560;2024-03-06T13:21:35;56.15;;;26.08;;
31095;SDS011;17749;51.962;8.560;2024-03-06T13:24:02;57.60;;;25.70;;
31095;SDS011;17749;51.962;8.560;2024-03-06T13:26:30;59.00;;;24.92;;
31095;SDS011;17749;51.962;8.560;2024-03-06T13:28:57;59.53;;;26.50;;
31095;SDS011;17749;51.962;8.560;2024-03-06T13:31:24;62.05;;;25.25;;
31095;SDS011;17749;51.962;8.560;2024-03-06T13:33:51;66.57;;;25.95;;
31095;SDS011;17749;51.962;8.560;2024-03-06T13:36:17;64.47;;;26.10;;
31095;SDS011;17749;51.962;8.560;2024-03-06T13:38:45;60.30;;;26.33;;
31095;SDS011;17749;51.962;8.560;2024-03-06T13:41:12;67.43;;;27.80;;
31095;SDS011;17749;51.962;8.560;2024-03-06T13:43:39;58.00;;;26.35;;
31095;SDS011;17749;51.962;8.560;2024-03-06T13:46:06;67.03;;;26.10;;
31095;SDS011;17749;51.962;8.560;2024-03-06T13:48:33;69.82;;;28.85;;
31095;SDS011;17749;51.962;8.560;2024-03-06T13:51:00;72.63;;;28.33;;
31095;SDS011;17749;51.962;8.560;2024-03-06T13:53:27;63.05;;;26.92;;
31095;SDS011;17749;51.962;8.560;2024-03-06T13:55:54;73.10;;;29.80;;
31095;SDS011;17749;51.962;8.560;2024-03-06T13:58:21;66.43;;;29.17;;
31095;SDS011;17749;51.962;8.560;2024-03-06T14:00:48;68.38;;;30.05;;
31095;SDS011;17749;51.962;8.560;2024-03-06T14:03:15;57.10;;;25.13;;
31095;SDS011;17749;51.962;8.560;2024-03-06T14:05:42;63.33;;;27.85;;
31095;SDS011;17749;51.962;8.560;2024-03-06T14:08:09;62.45;;;27.77;;
31095;SDS011;17749;51.962;8.560;2024-03-06T14:10:39;66.15;;;26.38;;
31095;SDS011;17749;51.962;8.560;2024-03-06T14:13:07;62.72;;;27.77;;
31095;SDS011;17749;51.962;8.560;2024-03-06T14:15:35;60.30;;;26.45;;
31095;SDS011;17749;51.962;8.560;2024-03-06T14:18:04;71.78;;;29.13;;
31095;SDS011;17749;51.962;8.560;2024-03-06T14:20:33;59.90;;;28.50;;
31095;SDS011;17749;51.962;8.560;2024-03-06T14:23:00;71.13;;;30.40;;
31095;SDS011;17749;51.962;8.560;2024-03-06T14:25:27;68.40;;;29.02;;
31095;SDS011;17749;51.962;8.560;2024-03-06T14:27:56;65.40;;;26.55;;
31095;SDS011;17749;51.962;8.560;2024-03-06T14:30:23;58.53;;;25.20;;
31095;SDS011;17749;51.962;8.560;2024-03-06T14:32:50;71.13;;;25.52;;
31095;SDS011;17749;51.962;8.560;2024-03-06T14:35:17;60.13;;;26.58;;
31095;SDS011;17749;51.962;8.560;2024-03-06T14:37:44;61.08;;;26.42;;
31095;SDS011;17749;51.962;8.560;2024-03-06T14:40:11;61.08;;;25.20;;
31095;SDS011;17749;51.962;8.560;2024-03-06T14:42:39;61.70;;;27.60;;
31095;SDS011;17749;51.962;8.560;2024-03-06T14:45:06;52.90;;;23.63;;
31095;SDS011;17749;51.962;8.560;2024-03-06T14:47:33;52.00;;;25.02;;
31095;SDS011;17749;51.962;8.560;2024-03-06T14:50:00;47.70;;;23.52;;
31095;SDS011;17749;51.962;8.560;2024-03-06T14:52:28;55.00;;;24.10;;
31095;SDS011;17749;51.962;8.560;2024-03-06T14:54:55;51.88;;;24.08;;
31095;SDS011;17749;51.962;8.560;2024-03-06T14:57:22;62.63;;;26.33;;
31095;SDS011;17749;51.962;8.560;2024-03-06T14:59:50;55.45;;;24.67;;
31095;SDS011;17749;51.962;8.560;2024-03-06T15:02:19;51.83;;;24.17;;
31095;SDS011;17749;51.962;8.560;2024-03-06T15:04:47;52.88;;;22.95;;
31095;SDS011;17749;51.962;8.560;2024-03-06T15:07:14;52.78;;;22.63;;
31095;SDS011;17749;51.962;8.560;2024-03-06T15:09:41;45.72;;;22.83;;
31095;SDS011;17749;51.962;8.560;2024-03-06T15:12:08;48.25;;;22.70;;
31095;SDS011;17749;51.962;8.560;2024-03-06T15:14:36;47.45;;;20.25;;
31095;SDS011;17749;51.962;8.560;2024-03-06T15:17:12;44.53;;;20.65;;
31095;SDS011;17749;51.962;8.560;2024-03-06T15:19:39;48.60;;;20.70;;
31095;SDS011;17749;51.962;8.560;2024-03-06T15:22:07;43.85;;;21.20;;
31095;SDS011;17749;51.962;8.560;2024-03-06T15:24:34;53.28;;;21.30;;
31095;SDS011;17749;51.962;8.560;2024-03-06T15:27:01;37.78;;;19.58;;
31095;SDS011;17749;51.962;8.560;2024-03-06T15:29:28;47.22;;;21.00;;
31095;SDS011;17749;51.962;8.560;2024-03-06T15:31:55;42.30;;;20.15;;
31095;SDS011;17749;51.962;8.560;2024-03-06T15:34:22;48.55;;;19.63;;
31095;SDS011;17749;51.962;8.560;2024-03-06T15:36:49;47.58;;;21.70;;
31095;SDS011;17749;51.962;8.560;2024-03-06T15:39:20;50.63;;;22.02;;
31095;SDS011;17749;51.962;8.560;2024-03-06T15:41:48;46.53;;;22.40;;
31095;SDS011;17749;51.962;8.560;2024-03-06T15:44:15;57.70;;;26.55;;
31095;SDS011;17749;51.962;8.560;2024-03-06T15:46:42;55.25;;;25.73;;
31095;SDS011;17749;51.962;8.560;2024-03-06T15:49:21;50.30;;;24.48;;
31095;SDS011;17749;51.962;8.560;2024-03-06T15:51:52;61.72;;;26.05;;
31095;SDS011;17749;51.962;8.560;2024-03-06T15:54:20;62.70;;;26.98;;
31095;SDS011;17749;51.962;8.560;2024-03-06T15:56:48;60.08;;;25.60;;
31095;SDS011;17749;51.962;8.560;2024-03-06T15:59:15;57.67;;;25.10;;
31095;SDS011;17749;51.962;8.560;2024-03-06T16:01:42;59.85;;;24.65;;
31095;SDS011;17749;51.962;8.560;2024-03-06T16:04:09;49.92;;;24.75;;
31095;SDS011;17749;51.962;8.560;2024-03-06T16:06:36;55.47;;;27.27;;
31095;SDS011;17749;51.962;8.560;2024-03-06T16:09:07;54.42;;;24.55;;
31095;SDS011;17749;51.962;8.560;2024-03-06T16:11:40;56.17;;;25.15;;
31095;SDS011;17749;51.962;8.560;2024-03-06T16:14:07;53.22;;;23.77;;
31095;SDS011;17749;51.962;8.560;2024-03-06T16:16:34;48.28;;;24.17;;
31095;SDS011;17749;51.962;8.560;2024-03-06T16:19:01;54.65;;;23.83;;
31095;SDS011;17749;51.962;8.560;2024-03-06T16:21:28;48.80;;;25.98;;
31095;SDS011;17749;51.962;8.560;2024-03-06T16:23:56;48.60;;;24.05;;
31095;SDS011;17749;51.962;8.560;2024-03-06T16:26:27;44.88;;;23.13;;
31095;SDS011;17749;51.962;8.560;2024-03-06T16:28:55;54.53;;;24.25;;
31095;SDS011;17749;51.962;8.560;2024-03-06T16:31:23;46.38;;;22.80;;
31095;SDS011;17749;51.962;8.560;2024-03-06T16:33:50;51.05;;;22.63;;
31095;SDS011;17749;51.962;8.560;2024-03-06T16:36:17;46.30;;;23.13;;
31095;SDS011;17749;51.962;8.560;2024-03-06T16:38:44;49.67;;;23.92;;
31095;SDS011;17749;51.962;8.560;2024-03-06T16:41:11;52.17;;;25.60;;
31095;SDS011;17749;51.962;8.560;2024-03-06T16:43:38;51.92;;;24.65;;
31095;SDS011;17749;51.962;8.560;2024-03-06T16:46:05;51.58;;;24.23;;
31095;SDS011;17749;51.962;8.560;2024-03-06T16:48:32;49.47;;;23.77;;
31095;SDS011;17749;51.962;8.560;2024-03-06T16:51:01;46.55;;;23.90;;
31095;SDS011;17749;51.962;8.560;2024-03-06T16:53:29;48.97;;;26.08;;
31095;SDS011;17749;51.962;8.560;2024-03-06T16:55:58;51.72;;;24.10;;
31095;SDS011;17749;51.962;8.560;2024-03-06T16:58:25;49.58;;;25.33;;
31095;SDS011;17749;51.962;8.560;2024-03-06T17:00:52;55.72;;;25.98;;
31095;SDS011;17749;51.962;8.560;2024-03-06T17:03:19;45.38;;;22.52;;
31095;SDS011;17749;51.962;8.560;2024-03-06T17:05:46;48.80;;;24.20;;
31095;SDS011;17749;51.962;8.560;2024-03-06T17:08:13;52.30;;;24.75;;
31095;SDS011;17749;51.962;8.560;2024-03-06T17:10:42;50.95;;;23.98;;
31095;SDS011;17749;51.962;8.560;2024-03-06T17:13:09;48.05;;;23.98;;
31095;SDS011;17749;51.962;8.560;2024-03-06T17:15:36;48.80;;;24.85;;
31095;SDS011;17749;51.962;8.560;2024-03-06T17:18:04;48.33;;;25.85;;
31095;SDS011;17749;51.962;8.560;2024-03-06T17:23:00;47.88;;;23.67;;
31095;SDS011;17749;51.962;8.560;2024-03-06T17:25:30;49.05;;;24.15;;
31095;SDS011;17749;51.962;8.560;2024-03-06T17:27:57;44.88;;;23.65;;
31095;SDS011;17749;51.962;8.560;2024-03-06T17:30:25;50.97;;;23.92;;
31095;SDS011;17749;51.962;8.560;2024-03-06T17:32:53;43.67;;;23.65;;
31095;SDS011;17749;51.962;8.560;2024-03-06T17:35:22;45.08;;;23.23;;
31095;SDS011;17749;51.962;8.560;2024-03-06T17:37:49;44.33;;;23.15;;
31095;SDS011;17749;51.962;8.560;2024-03-06T17:40:16;43.22;;;23.58;;
31095;SDS011;17749;51.962;8.560;2024-03-06T17:42:43;46.58;;;22.85;;
31095;SDS011;17749;51.962;8.560;2024-03-06T17:45:10;42.42;;;22.02;;
31095;SDS011;17749;51.962;8.560;2024-03-06T17:47:37;48.28;;;22.60;;
31095;SDS011;17749;51.962;8.560;2024-03-06T17:52:36;39.28;;;21.38;;
31095;SDS011;17749;51.962;8.560;2024-03-06T17:55:03;43.22;;;23.30;;
31095;SDS011;17749;51.962;8.560;2024-03-06T17:57:31;48.45;;;22.42;;
31095;SDS011;17749;51.962;8.560;2024-03-06T17:59:58;45.60;;;22.65;;
31095;SDS011;17749;51.962;8.560;2024-03-06T18:02:25;45.05;;;22.67;;
31095;SDS011;17749;51.962;8.560;2024-03-06T18:04:52;39.92;;;20.60;;
31095;SDS011;17749;51.962;8.560;2024-03-06T18:07:19;43.00;;;22.13;;
31095;SDS011;17749;51.962;8.560;2024-03-06T18:09:47;43.60;;;21.67;;
31095;SDS011;17749;51.962;8.560;2024-03-06T18:12:17;41.20;;;22.70;;
31095;SDS011;17749;51.962;8.560;2024-03-06T18:14:45;56.47;;;25.42;;
31095;SDS011;17749;51.962;8.560;2024-03-06T18:17:11;44.42;;;22.40;;
31095;SDS011;17749;51.962;8.560;2024-03-06T18:19:38;37.05;;;19.83;;
31095;SDS011;17749;51.962;8.560;2024-03-06T18:22:05;47.00;;;23.50;;
31095;SDS011;17749;51.962;8.560;2024-03-06T18:24:32;40.22;;;20.67;;
31095;SDS011;17749;51.962;8.560;2024-03-06T18:26:59;46.67;;;21.75;;
31095;SDS011;17749;51.962;8.560;2024-03-06T18:29:26;41.97;;;21.13;;
31095;SDS011;17749;51.962;8.560;2024-03-06T18:31:55;47.47;;;23.60;;
31095;SDS011;17749;51.962;8.560;2024-03-06T18:34:23;40.95;;;22.02;;
31095;SDS011;17749;51.962;8.560;2024-03-06T18:36:50;44.28;;;22.52;;
31095;SDS011;17749;51.962;8.560;2024-03-06T18:39:17;41.88;;;22.00;;
31095;SDS011;17749;51.962;8.560;2024-03-06T18:41:44;41.17;;;22.42;;
31095;SDS011;17749;51.962;8.560;2024-03-06T18:44:11;39.53;;;22.40;;
31095;SDS011;17749;51.962;8.560;2024-03-06T18:46:39;44.08;;;22.88;;
31095;SDS011;17749;51.962;8.560;2024-03-06T18:49:07;43.35;;;21.33;;
31095;SDS011;17749;51.962;8.560;2024-03-06T18:51:34;47.30;;;23.67;;
31095;SDS011;17749;51.962;8.560;2024-03-06T18:54:01;50.65;;;21.27;;
31095;SDS011;17749;51.962;8.560;2024-03-06T18:56:29;45.78;;;22.88;;
31095;SDS011;17749;51.962;8.560;2024-03-06T18:58:56;44.05;;;22.30;;
31095;SDS011;17749;51.962;8.560;2024-03-06T19:01:23;45.05;;;22.63;;
31095;SDS011;17749;51.962;8.560;2024-03-06T19:03:52;43.33;;;21.15;;
31095;SDS011;17749;51.962;8.560;2024-03-06T19:06:19;50.80;;;23.15;;
31095;SDS011;17749;51.962;8.560;2024-03-06T19:08:46;46.28;;;23.17;;
31095;SDS011;17749;51.962;8.560;2024-03-06T19:13:42;44.83;;;22.60;;
31095;SDS011;17749;51.962;8.560;2024-03-06T19:16:09;47.72;;;22.25;;
31095;SDS011;17749;51.962;8.560;2024-03-06T19:18:36;45.05;;;22.48;;
31095;SDS011;17749;51.962;8.560;2024-03-06T19:21:04;45.97;;;22.75;;
31095;SDS011;17749;51.962;8.560;2024-03-06T19:23:31;47.00;;;22.77;;
31095;SDS011;17749;51.962;8.560;2024-03-06T19:25:58;52.67;;;23.25;;
31095;SDS011;17749;51.962;8.560;2024-03-06T19:28:25;45.55;;;22.30;;
31095;SDS011;17749;51.962;8.560;2024-03-06T19:30:52;41.33;;;22.20;;
31095;SDS011;17749;51.962;8.560;2024-03-06T19:33:20;49.28;;;23.65;;
31095;SDS011;17749;51.962;8.560;2024-03-06T19:35:47;46.80;;;22.48;;
31095;SDS011;17749;51.962;8.560;2024-03-06T19:38:14;45.15;;;20.88;;
31095;SDS011;17749;51.962;8.560;2024-03-06T19:40:44;48.00;;;23.08;;
31095;SDS011;17749;51.962;8.560;2024-03-06T19:43:11;41.03;;;22.10;;
31095;SDS011;17749;51.962;8.560;2024-03-06T19:45:38;46.33;;;22.48;;
31095;SDS011;17749;51.962;8.560;2024-03-06T19:48:06;44.33;;;21.30;;
31095;SDS011;17749;51.962;8.560;2024-03-06T19:50:33;49.85;;;22.42;;
31095;SDS011;17749;51.962;8.560;2024-03-06T19:53:00;43.45;;;21.25;;
31095;SDS011;17749;51.962;8.560;2024-03-06T19:55:27;34.65;;;19.80;;
31095;SDS011;17749;51.962;8.560;2024-03-06T19:57:59;44.90;;;22.13;;
31095;SDS011;17749;51.962;8.560;2024-03-06T20:00:26;44.17;;;21.67;;
31095;SDS011;17749;51.962;8.560;2024-03-06T20:02:53;42.50;;;22.95;;
31095;SDS011;17749;51.962;8.560;2024-03-06T20:05:20;43.85;;;22.92;;
31095;SDS011;17749;51.962;8.560;2024-03-06T20:07:47;46.28;;;21.10;;
31095;SDS011;17749;51.962;8.560;2024-03-06T20:10:15;38.75;;;19.75;;
31095;SDS011;17749;51.962;8.560;2024-03-06T20:12:42;40.03;;;20.35;;
31095;SDS011;17749;51.962;8.560;2024-03-06T20:15:09;46.03;;;21.48;;
31095;SDS011;17749;51.962;8.560;2024-03-06T20:17:36;45.25;;;21.55;;
31095;SDS011;17749;51.962;8.560;2024-03-06T20:20:03;37.83;;;19.73;;
31095;SDS011;17749;51.962;8.560;2024-03-06T20:22:30;45.00;;;21.90;;
31095;SDS011;17749;51.962;8.560;2024-03-06T20:24:57;41.33;;;22.75;;
31095;SDS011;17749;51.962;8.560;2024-03-06T20:27:26;45.42;;;21.60;;
31095;SDS011;17749;51.962;8.560;2024-03-06T20:29:53;40.10;;;20.25;;
31095;SDS011;17749;51.962;8.560;2024-03-06T20:32:20;40.05;;;20.67;;
31095;SDS011;17749;51.962;8.560;2024-03-06T20:34:47;44.17;;;20.58;;
31095;SDS011;17749;51.962;8.560;2024-03-06T20:37:14;39.83;;;22.02;;
31095;SDS011;17749;51.962;8.560;2024-03-06T20:39:41;43.42;;;21.92;;
31095;SDS011;17749;51.962;8.560;2024-03-06T20:42:08;50.17;;;24.42;;
31095;SDS011;17749;51.962;8.560;2024-03-06T20:44:35;47.30;;;23.45;;
31095;SDS011;17749;51.962;8.560;2024-03-06T20:47:03;44.83;;;21.92;;
31095;SDS011;17749;51.962;8.560;2024-03-06T20:49:31;44.35;;;22.00;;